sensor_id;sensor_type;location;lat;lon;timestamp;P1;durP1;ratioP1;P2;durP2;ratioP2
46755;SDS011;32506;52.826;-1.192;2022-07-10T00:01:15;1.73;;;0.68;;
46755;SDS011;32506;52.826;-1.192;2022-07-10T00:03:41;1.50;;;0.60;;
46755;SDS011;32506;52.826;-1.192;2022-07-10T00:06:09;3.97;;;0.90;;
46755;SDS011;32506;52.826;-1.192;2022-07-10T00:08:35;1.45;;;0.60;;
46755;SDS011;32506;52.826;-1.192;2022-07-10T00:11:00;2.03;;;0.63;;
46755;SDS011;32506;52.826;-1.192;2022-07-10T00:13:26;1.98;;;0.52;;
46755;SDS011;32506;52.826;-1.192;2022-07-10T00:15:51;1.58;;;0.70;;
46755;SDS011;32506;52.826;-1.192;2022-07-10T00:18:17;3.22;;;0.77;;
46755;SDS011;32506;52.826;-1.192;2022-07-10T00:20:42;1.30;;;0.50;;
46755;SDS011;32506;52.826;-1.192;2022-07-10T00:23:07;1.10;;;0.52;;
46755;SDS011;32506;52.826;-1.192;2022-07-10T00:25:33;1.67;;;0.57;;
46755;SDS011;32506;52.826;-1.192;2022-07-10T00:27:58;1.08;;;0.60;;
46755;SDS011;32506;52.826;-1.192;2022-07-10T00:30:24;1.40;;;0.68;;
46755;SDS011;32506;52.826;-1.192;2022-07-10T00:32:50;1.02;;;0.50;;
46755;SDS011;32506;52.826;-1.192;2022-07-10T00:35:15;2.13;;;0.70;;
46755;SDS011;32506;52.826;-1.192;2022-07-10T00:37:41;3.28;;;0.70;;
46755;SDS011;32506;52.826;-1.192;2022-07-10T00:40:06;1.65;;;0.60;;
46755;SDS011;32506;52.826;-1.192;2022-07-10T00:42:32;0.82;;;0.50;;
46755;SDS011;32506;52.826;-1.192;2022-07-10T00:44:58;1.30;;;0.70;;
46755;SDS011;32506;52.826;-1.192;2022-07-10T00:47:24;2.53;;;0.80;;
46755;SDS011;32506;52.826;-1.192;2022-07-10T00:49:49;1.60;;;0.60;;
46755;SDS011;32506;52.826;-1.192;2022-07-10T00:52:15;1.67;;;0.60;;
46755;SDS011;32506;52.826;-1.192;2022-07-10T00:54:43;1.50;;;0.60;;
46755;SDS011;32506;52.826;-1.192;2022-07-10T00:57:10;1.15;;;0.57;;
46755;SDS011;32506;52.826;-1.192;2022-07-10T00:59:39;1.58;;;0.63;;
46755;SDS011;32506;52.826;-1.192;2022-07-10T01:02:05;1.63;;;0.60;;
46755;SDS011;32506;52.826;-1.192;2022-07-10T01:04:31;1.63;;;0.55;;
46755;SDS011;32506;52.826;-1.192;2022-07-10T01:06:57;0.73;;;0.50;;
46755;SDS011;32506;52.826;-1.192;2022-07-10T01:09:23;1.88;;;0.60;;
46755;SDS011;32506;52.826;-1.192;2022-07-10T01:11:49;2.33;;;0.70;;
46755;SDS011;32506;52.826;-1.192;2022-07-10T01:14:15;1.83;;;0.80;;
46755;SDS011;32506;52.826;-1.192;2022-07-10T01:16:41;2.70;;;0.77;;
46755;SDS011;32506;52.826;-1.192;2022-07-10T01:19:07;2.90;;;0.80;;
46755;SDS011;32506;52.826;-1.192;2022-07-10T01:21:33;3.83;;;0.70;;
46755;SDS011;32506;52.826;-1.192;2022-07-10T01:24:03;1.30;;;0.43;;
46755;SDS011;32506;52.826;-1.192;2022-07-10T01:26:31;3.00;;;0.70;;
46755;SDS011;32506;52.826;-1.192;2022-07-10T01:28:56;1.85;;;0.60;;
46755;SDS011;32506;52.826;-1.192;2022-07-10T01:31:25;1.45;;;0.70;;
46755;SDS011;32506;52.826;-1.192;2022-07-10T01:33:52;1.33;;;0.52;;
46755;SDS011;32506;52.826;-1.192;2022-07-10T01:36:18;1.52;;;0.77;;
46755;SDS011;32506;52.826;-1.192;2022-07-10T01:38:45;2.08;;;0.60;;
46755;SDS011;32506;52.826;-1.192;2022-07-10T01:41:11;2.58;;;0.70;;
46755;SDS011;32506;52.826;-1.192;2022-07-10T01:43:37;1.27;;;0.63;;
46755;SDS011;32506;52.826;-1.192;2022-07-10T01:46:03;2.00;;;0.70;;
46755;SDS011;32506;52.826;-1.192;2022-07-10T01:48:29;1.85;;;0.68;;
46755;SDS011;32506;52.826;-1.192;2022-07-10T01:50:55;1.17;;;0.60;;
46755;SDS011;32506;52.826;-1.192;2022-07-10T01:53:22;3.40;;;0.63;;
46755;SDS011;32506;52.826;-1.192;2022-07-10T01:55:47;1.42;;;0.80;;
46755;SDS011;32506;52.826;-1.192;2022-07-10T01:58:13;2.28;;;0.75;;
46755;SDS011;32506;52.826;-1.192;2022-07-10T02:00:38;1.55;;;0.77;;
46755;SDS011;32506;52.826;-1.192;2022-07-10T02:03:04;1.60;;;0.52;;
46755;SDS011;32506;52.826;-1.192;2022-07-10T02:05:48;1.77;;;0.80;;
46755;SDS011;32506;52.826;-1.192;2022-07-10T02:08:13;1.92;;;0.82;;
46755;SDS011;32506;52.826;-1.192;2022-07-10T02:10:39;1.60;;;0.90;;
46755;SDS011;32506;52.826;-1.192;2022-07-10T02:13:04;1.27;;;0.73;;
46755;SDS011;32506;52.826;-1.192;2022-07-10T02:15:30;2.58;;;0.85;;
46755;SDS011;32506;52.826;-1.192;2022-07-10T02:17:55;2.25;;;0.82;;
46755;SDS011;32506;52.826;-1.192;2022-07-10T02:20:21;2.67;;;1.00;;
46755;SDS011;32506;52.826;-1.192;2022-07-10T02:22:46;1.55;;;0.90;;
46755;SDS011;32506;52.826;-1.192;2022-07-10T02:25:12;1.92;;;0.70;;
46755;SDS011;32506;52.826;-1.192;2022-07-10T02:27:37;1.63;;;0.80;;
46755;SDS011;32506;52.826;-1.192;2022-07-10T02:30:03;2.53;;;1.00;;
46755;SDS011;32506;52.826;-1.192;2022-07-10T02:32:29;1.25;;;0.70;;
46755;SDS011;32506;52.826;-1.192;2022-07-10T02:34:54;3.00;;;0.90;;
46755;SDS011;32506;52.826;-1.192;2022-07-10T02:37:20;1.85;;;1.00;;
46755;SDS011;32506;52.826;-1.192;2022-07-10T02:39:45;2.50;;;0.80;;
46755;SDS011;32506;52.826;-1.192;2022-07-10T02:42:11;1.63;;;0.85;;
46755;SDS011;32506;52.826;-1.192;2022-07-10T02:44:36;1.20;;;0.77;;
46755;SDS011;32506;52.826;-1.192;2022-07-10T02:47:02;2.83;;;0.98;;
46755;SDS011;32506;52.826;-1.192;2022-07-10T02:49:27;2.40;;;0.65;;
46755;SDS011;32506;52.826;-1.192;2022-07-10T02:51:53;2.05;;;0.80;;
46755;SDS011;32506;52.826;-1.192;2022-07-10T02:54:18;1.92;;;0.88;;
46755;SDS011;32506;52.826;-1.192;2022-07-10T02:56:44;1.00;;;0.60;;
46755;SDS011;32506;52.826;-1.192;2022-07-10T02:59:09;2.47;;;0.80;;
46755;SDS011;32506;52.826;-1.192;2022-07-10T03:01:34;2.08;;;0.90;;
46755;SDS011;32506;52.826;-1.192;2022-07-10T03:04:00;2.78;;;0.90;;
46755;SDS011;32506;52.826;-1.192;2022-07-10T03:06:26;2.78;;;0.90;;
46755;SDS011;32506;52.826;-1.192;2022-07-10T03:08:52;1.45;;;0.63;;
46755;SDS011;32506;52.826;-1.192;2022-07-10T03:11:17;1.83;;;1.08;;
46755;SDS011;32506;52.826;-1.192;2022-07-10T03:13:43;3.08;;;1.20;;
46755;SDS011;32506;52.826;-1.192;2022-07-10T03:16:08;1.83;;;0.80;;
46755;SDS011;32506;52.826;-1.192;2022-07-10T03:18:34;1.63;;;0.80;;
46755;SDS011;32506;52.826;-1.192;2022-07-10T03:20:59;2.60;;;0.88;;
46755;SDS011;32506;52.826;-1.192;2022-07-10T03:23:25;2.38;;;0.80;;
46755;SDS011;32506;52.826;-1.192;2022-07-10T03:25:50;1.52;;;0.85;;
46755;SDS011;32506;52.826;-1.192;2022-07-10T03:28:16;2.17;;;0.70;;
46755;SDS011;32506;52.826;-1.192;2022-07-10T03:30:41;1.00;;;0.70;;
46755;SDS011;32506;52.826;-1.192;2022-07-10T03:33:07;1.70;;;0.80;;
46755;SDS011;32506;52.826;-1.192;2022-07-10T03:35:33;2.17;;;0.82;;
46755;SDS011;32506;52.826;-1.192;2022-07-10T03:37:58;0.93;;;0.68;;
46755;SDS011;32506;52.826;-1.192;2022-07-10T03:40:24;1.83;;;0.80;;
46755;SDS011;32506;52.826;-1.192;2022-07-10T03:42:51;2.10;;;0.70;;
46755;SDS011;32506;52.826;-1.192;2022-07-10T03:45:17;2.22;;;0.98;;
46755;SDS011;32506;52.826;-1.192;2022-07-10T03:47:42;2.20;;;0.80;;
46755;SDS011;32506;52.826;-1.192;2022-07-10T03:50:08;1.05;;;0.73;;
46755;SDS011;32506;52.826;-1.192;2022-07-10T03:52:34;1.88;;;1.05;;
46755;SDS011;32506;52.826;-1.192;2022-07-10T03:55:00;2.95;;;0.90;;
46755;SDS011;32506;52.826;-1.192;2022-07-10T03:57:25;2.30;;;1.58;;
46755;SDS011;32506;52.826;-1.192;2022-07-10T04:00:09;2.03;;;0.82;;
46755;SDS011;32506;52.826;-1.192;2022-07-10T04:02:36;1.10;;;0.60;;
46755;SDS011;32506;52.826;-1.192;2022-07-10T04:05:04;3.05;;;1.00;;
46755;SDS011;32506;52.826;-1.192;2022-07-10T04:07:31;1.80;;;0.82;;
46755;SDS011;32506;52.826;-1.192;2022-07-10T04:09:56;2.80;;;1.02;;
46755;SDS011;32506;52.826;-1.192;2022-07-10T04:12:22;3.35;;;0.90;;
46755;SDS011;32506;52.826;-1.192;2022-07-10T04:14:47;2.25;;;1.00;;
46755;SDS011;32506;52.826;-1.192;2022-07-10T04:17:16;2.17;;;0.73;;
46755;SDS011;32506;52.826;-1.192;2022-07-10T04:19:42;1.73;;;0.85;;
46755;SDS011;32506;52.826;-1.192;2022-07-10T04:22:08;2.58;;;0.90;;
46755;SDS011;32506;52.826;-1.192;2022-07-10T04:24:33;1.35;;;0.68;;
46755;SDS011;32506;52.826;-1.192;2022-07-10T04:26:59;1.48;;;0.82;;
46755;SDS011;32506;52.826;-1.192;2022-07-10T04:29:24;2.70;;;0.60;;
46755;SDS011;32506;52.826;-1.192;2022-07-10T04:31:49;1.67;;;0.80;;
46755;SDS011;32506;52.826;-1.192;2022-07-10T04:34:15;1.30;;;0.68;;
46755;SDS011;32506;52.826;-1.192;2022-07-10T04:36:40;2.10;;;0.70;;
46755;SDS011;32506;52.826;-1.192;2022-07-10T04:39:06;2.17;;;0.90;;
46755;SDS011;32506;52.826;-1.192;2022-07-10T04:41:31;1.48;;;0.60;;
46755;SDS011;32506;52.826;-1.192;2022-07-10T04:43:56;1.98;;;0.98;;
46755;SDS011;32506;52.826;-1.192;2022-07-10T04:46:22;1.48;;;0.68;;
46755;SDS011;32506;52.826;-1.192;2022-07-10T04:48:47;1.42;;;0.80;;
46755;SDS011;32506;52.826;-1.192;2022-07-10T04:51:13;1.27;;;0.70;;
46755;SDS011;32506;52.826;-1.192;2022-07-10T04:53:39;1.83;;;0.60;;
46755;SDS011;32506;52.826;-1.192;2022-07-10T04:56:04;2.10;;;1.13;;
46755;SDS011;32506;52.826;-1.192;2022-07-10T04:58:30;2.58;;;0.90;;
46755;SDS011;32506;52.826;-1.192;2022-07-10T05:00:55;2.13;;;1.05;;
46755;SDS011;32506;52.826;-1.192;2022-07-10T05:03:20;2.33;;;1.08;;
46755;SDS011;32506;52.826;-1.192;2022-07-10T05:05:46;2.42;;;0.95;;
46755;SDS011;32506;52.826;-1.192;2022-07-10T05:08:11;2.13;;;1.10;;
46755;SDS011;32506;52.826;-1.192;2022-07-10T05:10:37;1.40;;;0.90;;
46755;SDS011;32506;52.826;-1.192;2022-07-10T05:13:02;1.98;;;0.77;;
46755;SDS011;32506;52.826;-1.192;2022-07-10T05:15:28;0.57;;;0.52;;
46755;SDS011;32506;52.826;-1.192;2022-07-10T05:17:53;1.85;;;0.80;;
46755;SDS011;32506;52.826;-1.192;2022-07-10T05:20:19;2.60;;;0.90;;
46755;SDS011;32506;52.826;-1.192;2022-07-10T05:22:45;1.48;;;0.70;;
46755;SDS011;32506;52.826;-1.192;2022-07-10T05:25:10;1.98;;;0.80;;
46755;SDS011;32506;52.826;-1.192;2022-07-10T05:27:36;2.80;;;1.13;;
46755;SDS011;32506;52.826;-1.192;2022-07-10T05:30:01;1.92;;;1.08;;
46755;SDS011;32506;52.826;-1.192;2022-07-10T05:32:27;2.58;;;1.00;;
46755;SDS011;32506;52.826;-1.192;2022-07-10T05:34:52;1.70;;;1.00;;
46755;SDS011;32506;52.826;-1.192;2022-07-10T05:37:18;2.38;;;0.93;;
46755;SDS011;32506;52.826;-1.192;2022-07-10T05:39:43;2.15;;;0.85;;
46755;SDS011;32506;52.826;-1.192;2022-07-10T05:42:08;1.50;;;1.00;;
46755;SDS011;32506;52.826;-1.192;2022-07-10T05:44:34;3.53;;;0.73;;
46755;SDS011;32506;52.826;-1.192;2022-07-10T05:46:59;3.28;;;1.00;;
46755;SDS011;32506;52.826;-1.192;2022-07-10T05:49:25;1.95;;;0.80;;
46755;SDS011;32506;52.826;-1.192;2022-07-10T05:51:50;1.80;;;0.63;;
46755;SDS011;32506;52.826;-1.192;2022-07-10T05:54:16;3.33;;;0.90;;
46755;SDS011;32506;52.826;-1.192;2022-07-10T05:56:41;2.58;;;0.93;;
46755;SDS011;32506;52.826;-1.192;2022-07-10T05:59:06;2.03;;;0.82;;
46755;SDS011;32506;52.826;-1.192;2022-07-10T06:01:32;1.75;;;0.82;;
46755;SDS011;32506;52.826;-1.192;2022-07-10T06:03:57;1.38;;;0.80;;
46755;SDS011;32506;52.826;-1.192;2022-07-10T06:06:23;2.85;;;0.88;;
46755;SDS011;32506;52.826;-1.192;2022-07-10T06:08:48;1.38;;;0.95;;
46755;SDS011;32506;52.826;-1.192;2022-07-10T06:11:14;2.10;;;0.80;;
46755;SDS011;32506;52.826;-1.192;2022-07-10T06:13:41;2.40;;;0.68;;
46755;SDS011;32506;52.826;-1.192;2022-07-10T06:16:06;1.50;;;0.90;;
46755;SDS011;32506;52.826;-1.192;2022-07-10T06:18:32;2.33;;;1.05;;
46755;SDS011;32506;52.826;-1.192;2022-07-10T06:20:57;2.40;;;1.17;;
46755;SDS011;32506;52.826;-1.192;2022-07-10T06:23:23;1.42;;;0.82;;
46755;SDS011;32506;52.826;-1.192;2022-07-10T06:25:49;1.50;;;0.80;;
46755;SDS011;32506;52.826;-1.192;2022-07-10T06:28:15;1.17;;;0.77;;
46755;SDS011;32506;52.826;-1.192;2022-07-10T06:30:41;2.88;;;1.05;;
46755;SDS011;32506;52.826;-1.192;2022-07-10T06:33:07;3.30;;;0.80;;
46755;SDS011;32506;52.826;-1.192;2022-07-10T06:35:32;2.78;;;1.00;;
46755;SDS011;32506;52.826;-1.192;2022-07-10T06:37:58;2.30;;;0.95;;
46755;SDS011;32506;52.826;-1.192;2022-07-10T06:40:23;1.85;;;0.73;;
46755;SDS011;32506;52.826;-1.192;2022-07-10T06:42:50;1.38;;;0.73;;
46755;SDS011;32506;52.826;-1.192;2022-07-10T06:45:15;1.48;;;0.90;;
46755;SDS011;32506;52.826;-1.192;2022-07-10T06:47:41;2.35;;;0.82;;
46755;SDS011;32506;52.826;-1.192;2022-07-10T06:50:21;1.52;;;0.85;;
46755;SDS011;32506;52.826;-1.192;2022-07-10T06:52:50;2.15;;;0.90;;
46755;SDS011;32506;52.826;-1.192;2022-07-10T06:55:17;3.92;;;0.90;;
46755;SDS011;32506;52.826;-1.192;2022-07-10T06:57:44;2.92;;;0.98;;
46755;SDS011;32506;52.826;-1.192;2022-07-10T07:00:10;1.83;;;0.80;;
46755;SDS011;32506;52.826;-1.192;2022-07-10T07:02:36;2.67;;;1.00;;
46755;SDS011;32506;52.826;-1.192;2022-07-10T07:05:02;2.80;;;0.93;;
46755;SDS011;32506;52.826;-1.192;2022-07-10T07:07:28;2.45;;;1.00;;
46755;SDS011;32506;52.826;-1.192;2022-07-10T07:09:54;3.28;;;1.00;;
46755;SDS011;32506;52.826;-1.192;2022-07-10T07:12:19;1.33;;;0.68;;
46755;SDS011;32506;52.826;-1.192;2022-07-10T07:14:45;2.65;;;1.02;;
46755;SDS011;32506;52.826;-1.192;2022-07-10T07:17:10;2.20;;;1.05;;
46755;SDS011;32506;52.826;-1.192;2022-07-10T07:19:39;3.38;;;1.10;;
46755;SDS011;32506;52.826;-1.192;2022-07-10T07:22:23;2.95;;;0.80;;
46755;SDS011;32506;52.826;-1.192;2022-07-10T07:25:07;1.95;;;0.70;;
46755;SDS011;32506;52.826;-1.192;2022-07-10T07:27:35;1.80;;;0.75;;
46755;SDS011;32506;52.826;-1.192;2022-07-10T07:30:04;2.00;;;1.10;;
46755;SDS011;32506;52.826;-1.192;2022-07-10T07:32:40;1.77;;;0.88;;
46755;SDS011;32506;52.826;-1.192;2022-07-10T07:35:07;2.67;;;1.08;;
46755;SDS011;32506;52.826;-1.192;2022-07-10T07:37:34;2.35;;;1.17;;
46755;SDS011;32506;52.826;-1.192;2022-07-10T07:40:04;2.10;;;1.05;;
46755;SDS011;32506;52.826;-1.192;2022-07-10T07:42:31;1.10;;;0.70;;
46755;SDS011;32506;52.826;-1.192;2022-07-10T07:44:56;2.45;;;0.85;;
46755;SDS011;32506;52.826;-1.192;2022-07-10T07:47:22;1.67;;;0.77;;
46755;SDS011;32506;52.826;-1.192;2022-07-10T07:49:48;2.38;;;0.75;;
46755;SDS011;32506;52.826;-1.192;2022-07-10T07:52:13;0.75;;;0.68;;
46755;SDS011;32506;52.826;-1.192;2022-07-10T07:54:39;2.63;;;0.73;;
46755;SDS011;32506;52.826;-1.192;2022-07-10T07:57:05;2.10;;;1.08;;
46755;SDS011;32506;52.826;-1.192;2022-07-10T07:59:30;2.38;;;0.70;;
46755;SDS011;32506;52.826;-1.192;2022-07-10T08:01:56;1.15;;;0.60;;
46755;SDS011;32506;52.826;-1.192;2022-07-10T08:04:21;2.13;;;0.80;;
46755;SDS011;32506;52.826;-1.192;2022-07-10T08:06:47;2.85;;;0.98;;
46755;SDS011;32506;52.826;-1.192;2022-07-10T08:09:12;2.33;;;0.70;;
46755;SDS011;32506;52.826;-1.192;2022-07-10T08:11:38;1.30;;;0.70;;
46755;SDS011;32506;52.826;-1.192;2022-07-10T08:14:03;1.52;;;0.80;;
46755;SDS011;32506;52.826;-1.192;2022-07-10T08:16:29;1.17;;;0.60;;
46755;SDS011;32506;52.826;-1.192;2022-07-10T08:18:54;1.20;;;0.68;;
46755;SDS011;32506;52.826;-1.192;2022-07-10T08:21:20;2.60;;;0.80;;
46755;SDS011;32506;52.826;-1.192;2022-07-10T08:23:47;1.42;;;0.70;;
46755;SDS011;32506;52.826;-1.192;2022-07-10T08:26:12;2.33;;;0.77;;
46755;SDS011;32506;52.826;-1.192;2022-07-10T08:28:38;1.38;;;0.80;;
46755;SDS011;32506;52.826;-1.192;2022-07-10T08:31:03;1.80;;;0.70;;
46755;SDS011;32506;52.826;-1.192;2022-07-10T08:33:29;0.73;;;0.50;;
46755;SDS011;32506;52.826;-1.192;2022-07-10T08:35:54;1.08;;;0.68;;
46755;SDS011;32506;52.826;-1.192;2022-07-10T08:38:23;2.17;;;0.63;;
46755;SDS011;32506;52.826;-1.192;2022-07-10T08:40:49;2.40;;;0.60;;
46755;SDS011;32506;52.826;-1.192;2022-07-10T08:43:16;2.67;;;0.90;;
46755;SDS011;32506;52.826;-1.192;2022-07-10T08:45:42;1.60;;;0.68;;
46755;SDS011;32506;52.826;-1.192;2022-07-10T08:48:08;1.15;;;0.60;;
46755;SDS011;32506;52.826;-1.192;2022-07-10T08:50:37;1.90;;;0.80;;
46755;SDS011;32506;52.826;-1.192;2022-07-10T08:53:09;1.58;;;0.60;;
46755;SDS011;32506;52.826;-1.192;2022-07-10T08:55:38;2.60;;;0.88;;
46755;SDS011;32506;52.826;-1.192;2022-07-10T08:58:04;1.23;;;0.50;;
46755;SDS011;32506;52.826;-1.192;2022-07-10T09:00:33;2.63;;;0.60;;
46755;SDS011;32506;52.826;-1.192;2022-07-10T09:02:58;3.85;;;0.90;;
46755;SDS011;32506;52.826;-1.192;2022-07-10T09:05:24;2.65;;;0.70;;
46755;SDS011;32506;52.826;-1.192;2022-07-10T09:07:51;1.83;;;0.63;;
46755;SDS011;32506;52.826;-1.192;2022-07-10T09:10:20;1.45;;;0.60;;
46755;SDS011;32506;52.826;-1.192;2022-07-10T09:12:56;3.90;;;0.90;;
46755;SDS011;32506;52.826;-1.192;2022-07-10T09:15:24;1.45;;;0.60;;
46755;SDS011;32506;52.826;-1.192;2022-07-10T09:17:55;2.83;;;0.60;;
46755;SDS011;32506;52.826;-1.192;2022-07-10T09:22:59;3.10;;;0.75;;
46755;SDS011;32506;52.826;-1.192;2022-07-10T09:25:33;1.02;;;0.40;;
46755;SDS011;32506;52.826;-1.192;2022-07-10T09:27:59;2.15;;;0.93;;
46755;SDS011;32506;52.826;-1.192;2022-07-10T09:30:37;2.57;;;0.63;;
46755;SDS011;32506;52.826;-1.192;2022-07-10T09:33:16;1.08;;;0.73;;
46755;SDS011;32506;52.826;-1.192;2022-07-10T09:35:55;1.80;;;0.65;;
46755;SDS011;32506;52.826;-1.192;2022-07-10T09:43:53;0.93;;;0.50;;
46755;SDS011;32506;52.826;-1.192;2022-07-10T09:46:26;1.05;;;0.50;;
46755;SDS011;32506;52.826;-1.192;2022-07-10T09:49:11;1.50;;;0.60;;
46755;SDS011;32506;52.826;-1.192;2022-07-10T09:51:39;1.55;;;0.82;;
46755;SDS011;32506;52.826;-1.192;2022-07-10T09:54:07;1.73;;;0.65;;
46755;SDS011;32506;52.826;-1.192;2022-07-10T09:56:38;1.00;;;0.52;;
46755;SDS011;32506;52.826;-1.192;2022-07-10T09:59:17;1.58;;;0.65;;
46755;SDS011;32506;52.826;-1.192;2022-07-10T10:01:45;2.85;;;1.00;;
46755;SDS011;32506;52.826;-1.192;2022-07-10T10:06:42;1.95;;;0.70;;
46755;SDS011;32506;52.826;-1.192;2022-07-10T10:09:12;1.40;;;0.60;;
46755;SDS011;32506;52.826;-1.192;2022-07-10T10:11:46;1.35;;;0.60;;
46755;SDS011;32506;52.826;-1.192;2022-07-10T10:14:14;2.20;;;0.70;;
46755;SDS011;32506;52.826;-1.192;2022-07-10T10:16:45;1.77;;;0.70;;
46755;SDS011;32506;52.826;-1.192;2022-07-10T10:19:12;1.65;;;0.45;;
46755;SDS011;32506;52.826;-1.192;2022-07-10T10:21:58;1.95;;;0.57;;
46755;SDS011;32506;52.826;-1.192;2022-07-10T10:24:25;1.83;;;0.60;;
46755;SDS011;32506;52.826;-1.192;2022-07-10T10:26:51;1.77;;;0.82;;
46755;SDS011;32506;52.826;-1.192;2022-07-10T10:29:18;1.10;;;0.43;;
46755;SDS011;32506;52.826;-1.192;2022-07-10T10:31:43;2.42;;;0.60;;
46755;SDS011;32506;52.826;-1.192;2022-07-10T10:34:09;1.13;;;0.40;;
46755;SDS011;32506;52.826;-1.192;2022-07-10T10:41:38;1.55;;;0.60;;
46755;SDS011;32506;52.826;-1.192;2022-07-10T10:49:19;3.17;;;0.88;;
46755;SDS011;32506;52.826;-1.192;2022-07-10T10:51:58;2.17;;;0.50;;
46755;SDS011;32506;52.826;-1.192;2022-07-10T10:54:25;1.75;;;0.52;;
46755;SDS011;32506;52.826;-1.192;2022-07-10T10:57:11;0.98;;;0.40;;
46755;SDS011;32506;52.826;-1.192;2022-07-10T10:59:44;1.98;;;0.60;;
46755;SDS011;32506;52.826;-1.192;2022-07-10T11:02:35;1.23;;;0.70;;
46755;SDS011;32506;52.826;-1.192;2022-07-10T11:13:06;1.70;;;0.50;;
46755;SDS011;32506;52.826;-1.192;2022-07-10T11:15:39;1.05;;;0.40;;
46755;SDS011;32506;52.826;-1.192;2022-07-10T11:18:10;0.85;;;0.40;;
46755;SDS011;32506;52.826;-1.192;2022-07-10T11:20:41;1.15;;;0.75;;
46755;SDS011;32506;52.826;-1.192;2022-07-10T11:25:54;0.80;;;0.40;;
46755;SDS011;32506;52.826;-1.192;2022-07-10T11:28:38;1.30;;;0.32;;
46755;SDS011;32506;52.826;-1.192;2022-07-10T11:31:17;0.90;;;0.35;;
46755;SDS011;32506;52.826;-1.192;2022-07-10T11:33:45;1.85;;;0.60;;
46755;SDS011;32506;52.826;-1.192;2022-07-10T11:36:14;2.20;;;0.52;;
46755;SDS011;32506;52.826;-1.192;2022-07-10T11:38:44;1.13;;;0.68;;
46755;SDS011;32506;52.826;-1.192;2022-07-10T11:41:14;1.70;;;0.60;;
46755;SDS011;32506;52.826;-1.192;2022-07-10T11:44:12;2.83;;;0.77;;
46755;SDS011;32506;52.826;-1.192;2022-07-10T11:46:31;1.05;;;0.38;;
46755;SDS011;32506;52.826;-1.192;2022-07-10T11:49:03;0.73;;;0.40;;
46755;SDS011;32506;52.826;-1.192;2022-07-10T11:51:31;1.67;;;0.60;;
46755;SDS011;32506;52.826;-1.192;2022-07-10T11:54:19;2.60;;;0.40;;
46755;SDS011;32506;52.826;-1.192;2022-07-10T11:56:49;1.42;;;0.70;;
46755;SDS011;32506;52.826;-1.192;2022-07-10T11:59:17;0.98;;;0.45;;
46755;SDS011;32506;52.826;-1.192;2022-07-10T12:01:50;1.52;;;0.40;;
46755;SDS011;32506;52.826;-1.192;2022-07-10T12:04:18;2.20;;;1.10;;
46755;SDS011;32506;52.826;-1.192;2022-07-10T12:06:47;1.30;;;0.45;;
46755;SDS011;32506;52.826;-1.192;2022-07-10T12:09:14;1.58;;;1.00;;
46755;SDS011;32506;52.826;-1.192;2022-07-10T12:11:42;0.75;;;0.40;;
46755;SDS011;32506;52.826;-1.192;2022-07-10T12:16:44;3.17;;;0.70;;
46755;SDS011;32506;52.826;-1.192;2022-07-10T12:19:12;1.08;;;0.50;;
46755;SDS011;32506;52.826;-1.192;2022-07-10T12:21:40;0.70;;;0.20;;
46755;SDS011;32506;52.826;-1.192;2022-07-10T12:24:07;0.95;;;0.47;;
46755;SDS011;32506;52.826;-1.192;2022-07-10T12:26:41;0.85;;;0.50;;
46755;SDS011;32506;52.826;-1.192;2022-07-10T12:29:24;1.30;;;0.50;;
46755;SDS011;32506;52.826;-1.192;2022-07-10T12:31:52;0.65;;;0.40;;
46755;SDS011;32506;52.826;-1.192;2022-07-10T12:34:34;1.42;;;0.45;;
46755;SDS011;32506;52.826;-1.192;2022-07-10T12:37:07;0.98;;;0.68;;
46755;SDS011;32506;52.826;-1.192;2022-07-10T12:39:37;1.33;;;0.40;;
46755;SDS011;32506;52.826;-1.192;2022-07-10T12:42:10;0.85;;;0.50;;
46755;SDS011;32506;52.826;-1.192;2022-07-10T12:44:39;1.08;;;0.40;;
46755;SDS011;32506;52.826;-1.192;2022-07-10T12:47:13;0.80;;;0.40;;
46755;SDS011;32506;52.826;-1.192;2022-07-10T12:55:06;1.48;;;0.32;;
46755;SDS011;32506;52.826;-1.192;2022-07-10T13:00:18;1.23;;;0.20;;
46755;SDS011;32506;52.826;-1.192;2022-07-10T13:02:45;0.65;;;0.30;;
46755;SDS011;32506;52.826;-1.192;2022-07-10T13:05:28;0.82;;;0.30;;
46755;SDS011;32506;52.826;-1.192;2022-07-10T13:08:12;1.27;;;0.40;;
46755;SDS011;32506;52.826;-1.192;2022-07-10T13:10:45;1.27;;;0.30;;
46755;SDS011;32506;52.826;-1.192;2022-07-10T13:13:14;0.50;;;0.30;;
46755;SDS011;32506;52.826;-1.192;2022-07-10T13:15:40;1.33;;;0.32;;
46755;SDS011;32506;52.826;-1.192;2022-07-10T13:20:40;0.52;;;0.30;;
46755;SDS011;32506;52.826;-1.192;2022-07-10T13:23:06;0.40;;;0.25;;
46755;SDS011;32506;52.826;-1.192;2022-07-10T13:25:31;0.32;;;0.30;;
46755;SDS011;32506;52.826;-1.192;2022-07-10T13:27:57;0.70;;;0.35;;
46755;SDS011;32506;52.826;-1.192;2022-07-10T13:30:24;0.73;;;0.28;;
46755;SDS011;32506;52.826;-1.192;2022-07-10T13:32:49;0.80;;;0.47;;
46755;SDS011;32506;52.826;-1.192;2022-07-10T13:35:15;0.90;;;0.20;;
46755;SDS011;32506;52.826;-1.192;2022-07-10T13:37:40;2.63;;;0.45;;
46755;SDS011;32506;52.826;-1.192;2022-07-10T13:40:07;0.50;;;0.20;;
46755;SDS011;32506;52.826;-1.192;2022-07-10T13:42:33;1.08;;;0.40;;
46755;SDS011;32506;52.826;-1.192;2022-07-10T13:44:58;3.00;;;0.90;;
46755;SDS011;32506;52.826;-1.192;2022-07-10T13:47:24;2.13;;;0.52;;
46755;SDS011;32506;52.826;-1.192;2022-07-10T13:49:49;2.45;;;0.60;;
46755;SDS011;32506;52.826;-1.192;2022-07-10T13:52:15;1.33;;;0.40;;
46755;SDS011;32506;52.826;-1.192;2022-07-10T13:54:40;2.42;;;0.50;;
46755;SDS011;32506;52.826;-1.192;2022-07-10T13:57:06;1.15;;;0.52;;
46755;SDS011;32506;52.826;-1.192;2022-07-10T13:59:31;1.60;;;0.38;;
46755;SDS011;32506;52.826;-1.192;2022-07-10T14:01:57;2.30;;;0.45;;
46755;SDS011;32506;52.826;-1.192;2022-07-10T14:04:22;2.25;;;0.80;;
46755;SDS011;32506;52.826;-1.192;2022-07-10T14:06:48;1.73;;;0.40;;
46755;SDS011;32506;52.826;-1.192;2022-07-10T14:09:13;1.42;;;0.20;;
46755;SDS011;32506;52.826;-1.192;2022-07-10T14:11:39;1.38;;;0.30;;
46755;SDS011;32506;52.826;-1.192;2022-07-10T14:14:05;0.40;;;0.20;;
46755;SDS011;32506;52.826;-1.192;2022-07-10T14:16:31;1.60;;;0.30;;
46755;SDS011;32506;52.826;-1.192;2022-07-10T14:18:56;0.95;;;0.40;;
46755;SDS011;32506;52.826;-1.192;2022-07-10T14:21:22;0.90;;;0.45;;
46755;SDS011;32506;52.826;-1.192;2022-07-10T14:23:50;1.05;;;0.30;;
46755;SDS011;32506;52.826;-1.192;2022-07-10T14:26:16;1.23;;;0.25;;
46755;SDS011;32506;52.826;-1.192;2022-07-10T14:28:41;0.68;;;0.50;;
46755;SDS011;32506;52.826;-1.192;2022-07-10T14:31:07;0.65;;;0.50;;
46755;SDS011;32506;52.826;-1.192;2022-07-10T14:33:33;1.13;;;0.20;;
46755;SDS011;32506;52.826;-1.192;2022-07-10T14:36:00;0.50;;;0.20;;
46755;SDS011;32506;52.826;-1.192;2022-07-10T14:38:26;0.20;;;0.20;;
46755;SDS011;32506;52.826;-1.192;2022-07-10T14:40:52;0.63;;;0.25;;
46755;SDS011;32506;52.826;-1.192;2022-07-10T14:43:20;0.60;;;0.20;;
46755;SDS011;32506;52.826;-1.192;2022-07-10T14:45:45;1.25;;;0.30;;
46755;SDS011;32506;52.826;-1.192;2022-07-10T14:48:11;0.55;;;0.30;;
46755;SDS011;32506;52.826;-1.192;2022-07-10T14:50:37;0.57;;;0.20;;
46755;SDS011;32506;52.826;-1.192;2022-07-10T14:53:04;1.25;;;0.30;;
46755;SDS011;32506;52.826;-1.192;2022-07-10T14:55:30;1.60;;;0.47;;
46755;SDS011;32506;52.826;-1.192;2022-07-10T14:57:56;0.60;;;0.20;;
46755;SDS011;32506;52.826;-1.192;2022-07-10T15:00:21;1.45;;;0.35;;
46755;SDS011;32506;52.826;-1.192;2022-07-10T15:02:47;0.30;;;0.10;;
46755;SDS011;32506;52.826;-1.192;2022-07-10T15:05:13;0.40;;;0.20;;
46755;SDS011;32506;52.826;-1.192;2022-07-10T15:07:39;1.20;;;0.30;;
46755;SDS011;32506;52.826;-1.192;2022-07-10T15:10:04;0.82;;;0.57;;
46755;SDS011;32506;52.826;-1.192;2022-07-10T15:12:30;0.60;;;0.20;;
46755;SDS011;32506;52.826;-1.192;2022-07-10T15:14:57;0.98;;;0.30;;
46755;SDS011;32506;52.826;-1.192;2022-07-10T15:17:22;0.68;;;0.20;;
46755;SDS011;32506;52.826;-1.192;2022-07-10T15:19:48;1.58;;;0.15;;